Time;durP1;ratioP1;P1;durP2;ratioP2;P2;SDS_P1;SDS_P2;PMS_P1;PMS_P2;Temp;Humidity;BMP_temperature;BMP_pressure;BME280_temperature;BME280_humidity;BME280_pressure;Samples;Min_cycle;Max_cycle;Signal;HPM_P1;HPM_P2
2022/06/19 00:00:49;;;;;;;2.75;1.10;;;;;;;18.58;82.19;100920.63;20785258;28;20045;-75
2022/06/19 00:10:51;;;;;;;3.30;1.13;;;;;;;18.48;82.15;100890.94;20856183;28;20045;-75
2022/06/19 00:20:52;;;;;;;3.92;1.25;;;;;;;18.57;81.88;100886.56;20812637;28;20045;-75
2022/06/19 00:30:54;;;;;;;2.88;1.10;;;;;;;18.55;81.68;100891.22;20798604;28;20057;-75
2022/06/19 00:40:57;;;;;;;2.42;1.10;;;;;;;18.55;81.52;100910.09;20797831;28;20099;-75
2022/06/19 00:51:02;;;;;;;3.75;1.42;;;;;;;18.55;81.38;100885.81;20795078;28;20103;-75
2022/06/19 01:01:36;;;;;;;2.38;1.20;;;;;;;18.54;81.37;100874.19;20809376;28;20053;-75
2022/06/19 01:11:38;;;;;;;2.97;1.00;;;;;;;18.53;81.41;100877.91;20790118;28;20049;-75
2022/06/19 01:22:00;;;;;;;4.78;2.20;;;;;;;18.53;81.28;100879.72;20809125;28;20057;-75
2022/06/19 01:32:05;;;;;;;3.88;1.30;;;;;;;18.39;81.10;100887.25;20892973;28;20041;-75
2022/06/19 01:42:08;;;;;;;4.03;1.20;;;;;;;18.51;81.04;101001.19;20889372;28;20409;-75
2022/06/19 01:52:09;;;;;;;3.42;1.10;;;;;;;18.52;80.68;100937.31;20890173;28;20049;-75
2022/06/19 02:02:13;;;;;;;3.45;1.05;;;;;;;18.14;80.35;100823.13;20891512;28;20049;-75
2022/06/19 02:12:14;;;;;;;3.35;1.42;;;;;;;18.49;80.18;100883.69;20834452;28;20041;-75
2022/06/19 02:22:16;;;;;;;1.95;1.08;;;;;;;18.47;79.76;100859.59;20807009;28;20528;-75
2022/06/19 02:32:25;;;;;;;3.45;1.67;;;;;;;18.48;79.49;100844.25;20806156;28;20045;-75
2022/06/19 02:42:39;;;;;;;4.28;1.30;;;;;;;18.47;79.12;100834.47;20807100;28;20506;-75
2022/06/19 02:52:40;;;;;;;3.65;1.30;;;;;;;18.35;78.71;100910.06;20803348;28;20045;-75
2022/06/19 03:02:42;;;;;;;2.75;0.90;;;;;;;18.46;78.53;100889.38;20801812;28;20445;-75
2022/06/19 03:12:44;;;;;;;1.95;0.85;;;;;;;18.45;78.50;100895.75;20800639;28;20521;-75
2022/06/19 03:22:46;;;;;;;2.85;1.05;;;;;;;18.38;78.14;100877.44;20803087;28;20490;-75
2022/06/19 03:32:47;;;;;;;3.20;1.23;;;;;;;18.27;77.99;100864.13;20816916;28;20046;-75
2022/06/19 03:42:49;;;;;;;3.17;1.17;;;;;;;18.39;77.90;100961.88;20799409;28;20099;-75
2022/06/19 03:52:51;;;;;;;4.25;1.00;;;;;;;18.38;78.20;100839.72;20800549;28;20498;-75
2022/06/19 04:02:52;;;;;;;2.28;1.10;;;;;;;18.41;77.94;100966.13;20797142;28;20128;-75
2022/06/19 04:12:54;;;;;;;4.25;1.17;;;;;;;18.40;77.88;100923.97;20796323;28;20538;-75
2022/06/19 04:22:56;;;;;;;3.40;0.88;;;;;;;18.40;77.78;100726.38;20850852;28;20037;-76
2022/06/19 04:32:57;;;;;;;4.30;1.00;;;;;;;18.37;77.72;100641.28;20841874;28;20049;-75
2022/06/19 04:42:59;;;;;;;4.55;1.13;;;;;;;18.09;77.49;100501.09;20840341;28;20065;-75
2022/06/19 04:53:00;;;;;;;3.20;0.90;;;;;;;18.40;76.99;100551.19;20865983;28;20057;-76
2022/06/19 05:03:02;;;;;;;4.68;1.55;;;;;;;18.46;79.92;100657.56;20890935;28;20052;-74
2022/06/19 05:13:06;;;;;;;4.45;1.70;;;;;;;18.51;84.46;100676.84;20919861;28;20044;-75
2022/06/19 05:23:09;;;;;;;4.68;1.45;;;;;;;18.51;88.87;100684.91;20869384;28;20045;-75
2022/06/19 05:33:10;;;;;;;7.93;1.63;;;;;;;18.60;92.64;100649.03;20890321;28;20067;-74
2022/06/19 05:43:12;;;;;;;3.88;1.27;;;;;;;18.62;97.07;100671.28;20897505;28;20053;-76
2022/06/19 05:53:13;;;;;;;2.83;1.10;;;;;;;18.62;91.53;100663.19;20817146;28;20041;-76
2022/06/19 06:03:16;;;;;;;4.88;1.02;;;;;;;18.34;87.57;100665.81;20806771;28;20167;-76
2022/06/19 06:13:18;;;;;;;5.55;1.20;;;;;;;18.61;83.72;100717.25;20785195;28;20057;-76
2022/06/19 06:23:20;;;;;;;4.00;0.95;;;;;;;18.59;83.01;100755.16;20794372;28;20037;-75
2022/06/19 06:33:21;;;;;;;4.13;1.08;;;;;;;18.57;82.16;100794.03;20785547;28;20061;-75
2022/06/19 06:43:23;;;;;;;3.75;1.10;;;;;;;18.47;82.63;100778.72;20852981;28;20044;-76
2022/06/19 06:53:25;;;;;;;4.35;1.45;;;;;;;18.54;89.14;100822.13;20861002;28;20059;-75
2022/06/19 07:03:26;;;;;;;15.27;2.92;;;;;;;18.60;95.01;100786.53;20877747;28;20131;-76
2022/06/19 07:13:28;;;;;;;9.73;1.70;;;;;;;18.65;96.09;100795.03;20843174;28;20498;-76
2022/06/19 07:23:30;;;;;;;10.23;1.75;;;;;;;18.62;94.93;100803.41;20769054;28;20068;-75
2022/06/19 07:33:36;;;;;;;5.63;1.83;;;;;;;18.62;93.47;100857.34;20760408;28;20046;-74
2022/06/19 07:43:38;;;;;;;6.50;1.27;;;;;;;18.59;92.39;100887.28;20849044;28;20069;-74
2022/06/19 07:53:39;;;;;;;8.60;1.85;;;;;;;18.41;91.09;100904.13;20844599;28;20052;-74
2022/06/19 08:03:41;;;;;;;5.32;2.05;;;;;;;18.55;90.41;100950.53;20814930;28;20126;-74
2022/06/19 08:13:43;;;;;;;7.68;1.55;;;;;;;18.54;89.66;100951.53;20844481;28;20055;-74
2022/06/19 08:23:44;;;;;;;3.85;1.63;;;;;;;18.52;88.88;100948.13;20800189;28;20061;-74
2022/06/19 08:33:46;;;;;;;4.53;1.60;;;;;;;18.51;87.97;100914.06;20862751;28;20068;-74
2022/06/19 08:44:06;;;;;;;4.72;1.33;;;;;;;18.50;87.18;100920.44;20838433;28;20066;-75
2022/06/19 08:54:13;;;;;;;3.85;1.15;;;;;;;18.32;86.54;100931.91;20851602;28;20100;-74
2022/06/19 09:15:08;;;;;;;5.40;1.60;;;;;;;18.49;85.14;100972.66;20836749;28;20421;-75
2022/06/19 09:25:20;;;;;;;4.75;1.13;;;;;;;18.48;85.04;100946.69;20874277;28;20060;-75
2022/06/19 09:35:25;;;;;;;3.95;1.13;;;;;;;18.43;84.66;100884.25;20854742;28;20054;-75
2022/06/19 09:45:34;;;;;;;2.73;0.87;;;;;;;18.46;84.05;100890.25;20833621;28;20563;-75
2022/06/19 09:55:40;;;;;;;3.17;0.95;;;;;;;18.48;83.78;100906.25;20805376;28;20052;-75
2022/06/19 10:05:48;;;;;;;2.53;0.90;;;;;;;18.45;83.76;100917.31;20773481;28;20069;-75
2022/06/19 10:15:51;;;;;;;1.92;0.90;;;;;;;18.49;83.65;100916.03;20829205;28;20050;-74
2022/06/19 10:26:05;;;;;;;4.88;0.93;;;;;;;18.49;83.18;100876.47;20852254;28;20053;-75
2022/06/19 10:36:42;;;;;;;3.20;0.80;;;;;;;18.48;83.13;100904.44;20776601;28;20046;-75
2022/06/19 10:46:57;;;;;;;2.97;1.00;;;;;;;18.49;82.78;100862.13;20773355;28;20049;-75
2022/06/19 10:57:04;;;;;;;2.55;0.90;;;;;;;18.47;82.39;100881.16;20831886;28;20073;-76
2022/06/19 11:07:11;;;;;;;1.70;0.88;;;;;;;18.48;82.26;100904.44;20850900;28;20053;-76
2022/06/19 11:17:31;;;;;;;1.67;0.80;;;;;;;18.48;82.34;100925.13;20773371;28;20076;-76
2022/06/19 11:27:32;;;;;;;2.70;1.00;;;;;;;18.48;81.99;100952.09;20841558;28;20101;-76
2022/06/19 11:37:39;;;;;;;2.53;0.85;;;;;;;18.49;81.51;100978.91;20803845;28;20049;-76
2022/06/19 11:48:10;;;;;;;2.28;0.80;;;;;;;18.49;81.45;100978.91;20785813;28;20143;-76
2022/06/19 11:58:38;;;;;;;2.92;1.02;;;;;;;18.49;81.23;100945.69;20748536;28;20045;-77
2022/06/19 12:08:55;;;;;;;2.95;0.73;;;;;;;18.43;80.88;100930.09;20800563;28;20107;-76
2022/06/19 12:19:22;;;;;;;2.63;0.77;;;;;;;18.31;81.04;100914.03;20764534;28;20076;-76
2022/06/19 12:29:54;;;;;;;2.40;0.80;;;;;;;18.46;80.69;100922.59;20786331;28;20385;-77
2022/06/19 12:39:56;;;;;;;3.08;1.15;;;;;;;18.49;80.35;100932.22;20858736;28;20049;-78
2022/06/19 12:50:35;;;;;;;2.47;0.90;;;;;;;18.52;80.69;101000.19;20798440;28;20553;-76
2022/06/19 13:00:47;;;;;;;3.28;0.88;;;;;;;18.53;80.83;101046.88;20789947;28;20046;-77
2022/06/19 13:11:10;;;;;;;2.58;0.80;;;;;;;18.51;80.83;101084.78;20805061;28;20191;-75
2022/06/19 13:21:29;;;;;;;0.85;0.55;;;;;;;18.50;80.78;101084.88;20785220;28;20388;-77
2022/06/19 13:31:36;;;;;;;2.97;1.02;;;;;;;18.46;80.38;101084.31;20764253;28;20459;-76
2022/06/19 13:41:57;;;;;;;2.65;0.60;;;;;;;18.52;80.80;101082.91;20766561;28;20045;-76
2022/06/19 13:52:01;;;;;;;1.48;0.60;;;;;;;18.54;81.19;101102.50;20846113;28;20045;-76
2022/06/19 14:02:11;;;;;;;1.27;0.60;;;;;;;18.54;81.40;101108.75;20839596;28;20049;-76
2022/06/19 14:12:15;;;;;;;2.35;0.60;;;;;;;18.57;81.47;101115.75;20831076;28;20046;-76
2022/06/19 14:22:39;;;;;;;1.08;0.57;;;;;;;18.61;81.80;101095.59;20777470;28;20053;-77
2022/06/19 14:32:43;;;;;;;0.85;0.60;;;;;;;18.60;82.04;101125.38;20765548;28;20041;-78
2022/06/19 14:42:59;;;;;;;0.97;0.47;;;;;;;18.54;81.97;101102.50;20790341;28;20397;-78
2022/06/19 14:53:12;;;;;;;1.95;0.60;;;;;;;18.57;81.91;101121.13;20778402;28;20053;-78
2022/06/19 15:03:33;;;;;;;1.40;0.60;;;;;;;18.54;81.70;101102.50;20777539;28;20521;-78
2022/06/19 15:13:39;;;;;;;2.97;0.73;;;;;;;18.54;81.63;101124.06;20840322;28;20091;-77
2022/06/19 15:23:42;;;;;;;1.42;0.77;;;;;;;18.36;81.50;101094.22;20842816;28;20053;-78
2022/06/19 15:33:51;;;;;;;1.17;0.60;;;;;;;18.50;81.41;101123.50;20825797;28;20106;-77
2022/06/19 15:43:52;;;;;;;0.57;0.50;;;;;;;18.49;80.95;101077.78;20782411;28;20099;-77
2022/06/19 15:54:04;;;;;;;1.33;0.73;;;;;;;18.47;80.84;101052.81;20771913;28;20401;-77
2022/06/19 16:04:11;;;;;;;1.23;0.55;;;;;;;18.35;81.04;101125.69;20836981;28;20575;-77
2022/06/19 16:14:20;;;;;;;0.85;0.60;;;;;;;18.40;81.05;101101.03;20790360;28;20146;-77
2022/06/19 16:24:26;;;;;;;0.98;0.40;;;;;;;18.32;80.43;101065.81;20758071;28;20076;-78
2022/06/19 16:44:55;;;;;;;1.80;0.70;;;;;;;18.39;80.05;100981.56;20766654;28;20103;-78
2022/06/19 16:54:59;;;;;;;1.58;0.50;;;;;;;18.41;79.93;100979.59;20790587;28;20073;-77
2022/06/19 17:05:04;;;;;;;2.78;0.70;;;;;;;18.38;79.75;100995.22;20888382;28;20049;-76
2022/06/19 17:15:06;;;;;;;1.57;0.77;;;;;;;18.43;79.42;101067.56;20904538;28;20041;-78
2022/06/19 17:25:17;;;;;;;2.17;1.10;;;;;;;18.44;80.71;101040.47;20804611;28;20453;-77
2022/06/19 17:35:48;;;;;;;2.75;0.85;;;;;;;18.43;80.71;101036.09;20858853;28;20045;-77
2022/06/19 17:45:50;;;;;;;2.67;0.95;;;;;;;18.33;80.76;101068.38;20864349;28;20049;-77
2022/06/19 17:55:52;;;;;;;4.25;1.80;;;;;;;18.43;80.37;101094.50;20822229;28;20677;-77
2022/06/19 18:05:54;;;;;;;2.47;1.02;;;;;;;18.34;80.39;101070.09;20808832;28;20597;-77
2022/06/19 18:26:22;;;;;;;2.85;0.80;;;;;;;18.34;80.23;101088.94;20804627;28;20106;-77
2022/06/19 18:36:26;;;;;;;2.88;0.90;;;;;;;18.38;79.79;101103.88;20788500;28;20049;-78
2022/06/19 18:46:28;;;;;;;1.67;0.80;;;;;;;18.37;79.82;101118.31;20833526;28;20049;-77
2022/06/19 18:56:50;;;;;;;2.55;0.90;;;;;;;18.36;79.67;101105.00;20883260;28;20045;-77
2022/06/19 19:06:52;;;;;;;3.30;1.00;;;;;;;18.24;79.46;101099.66;20900986;28;20128;-77
2022/06/19 19:16:54;;;;;;;4.13;1.17;;;;;;;18.19;79.68;101093.00;20883807;28;20445;-77
2022/06/19 19:26:56;;;;;;;3.50;1.05;;;;;;;18.21;79.56;101074.84;20881110;28;20124;-77
2022/06/19 19:37:01;;;;;;;3.00;0.83;;;;;;;18.34;79.39;101112.34;20881821;28;20047;-77
2022/06/19 19:47:04;;;;;;;3.08;1.00;;;;;;;18.24;79.61;101096.13;20808608;28;20541;-78
2022/06/19 19:57:06;;;;;;;3.13;1.15;;;;;;;18.32;79.59;101125.97;20798175;28;20050;-78
2022/06/19 20:17:28;;;;;;;1.77;0.77;;;;;;;18.30;79.47;101149.50;20814646;28;20067;-77
2022/06/19 20:27:39;;;;;;;2.47;0.90;;;;;;;18.29;79.24;101126.22;20798094;28;20048;-77
2022/06/19 20:37:41;;;;;;;3.70;1.38;;;;;;;18.30;79.44;101110.91;20795912;28;20502;-77
2022/06/19 20:47:47;;;;;;;3.38;1.35;;;;;;;18.28;79.24;101129.91;20796152;28;20153;-77
2022/06/19 20:57:49;;;;;;;3.45;1.00;;;;;;;18.07;79.40;101052.63;20795360;28;20132;-77
2022/06/19 21:07:53;;;;;;;2.65;0.73;;;;;;;18.23;79.22;101099.81;20795039;28;20096;-77
2022/06/19 21:17:55;;;;;;;2.90;1.00;;;;;;;18.14;78.95;101041.34;20805853;28;20049;-77
2022/06/19 21:27:59;;;;;;;2.00;0.90;;;;;;;18.13;78.83;101066.59;20811281;28;20095;-77
2022/06/19 21:38:01;;;;;;;2.97;1.13;;;;;;;18.22;78.91;101104.34;20807062;28;20041;-77
2022/06/19 21:48:04;;;;;;;2.70;0.85;;;;;;;18.22;78.81;101174.41;20809506;28;20037;-77
2022/06/19 21:58:08;;;;;;;2.95;1.05;;;;;;;18.26;78.74;101131.91;20807606;28;20564;-77
2022/06/19 22:08:12;;;;;;;2.77;1.00;;;;;;;18.25;78.62;101114.84;20806255;28;20557;-77
2022/06/19 22:18:15;;;;;;;2.70;1.02;;;;;;;18.25;78.46;101120.25;20807736;28;20503;-77
2022/06/19 22:28:22;;;;;;;2.60;0.80;;;;;;;18.25;78.59;101176.00;20804351;28;20056;-77
2022/06/19 22:38:23;;;;;;;1.85;0.85;;;;;;;18.20;78.41;101183.63;20805727;28;20049;-77
2022/06/19 22:48:25;;;;;;;2.22;1.27;;;;;;;18.24;78.38;101129.31;20804741;28;20057;-77
2022/06/19 23:08:47;;;;;;;1.00;0.70;;;;;;;18.23;78.40;101126.78;20884905;28;20052;-77
2022/06/19 23:18:49;;;;;;;1.90;0.70;;;;;;;18.05;78.11;101049.22;20883259;28;20485;-77
2022/06/19 23:28:51;;;;;;;2.20;0.73;;;;;;;18.21;78.02;101058.69;20881829;28;20584;-78
2022/06/19 23:38:56;;;;;;;1.67;0.60;;;;;;;18.21;77.88;101072.16;20880256;28;20045;-77
2022/06/19 23:48:57;;;;;;;1.40;0.55;;;;;;;18.20;77.91;101079.38;20867475;28;20075;-77
2022/06/19 23:58:59;;;;;;;1.55;0.55;;;;;;;18.21;77.95;101091.03;20882832;28;20051;-77
